METAR Formatted Surface Weather Observation
Issued by NWS

Home | Current Version | Previous Version | Text Only | Print | Product List | Glossary On
Versions: 1 2 3 4
538
SAUS41 KGYX 250733 COR
MTRNKT
SPECI KNKT 250728Z 00000KT 7SM FEW014 12/11 A2982 RMK AO2 T01170106
$



USA.gov is the U.S. government's official web portal to all federal, state and local government web resources and services.